createdAt,value
2023-02-16T00:01:48.191Z,2.25
2023-02-16T00:08:30.398Z,2.25
2023-02-16T00:15:19.467Z,2.23
2023-02-16T00:22:02.662Z,2.23
2023-02-16T00:28:45.831Z,2.20
2023-02-16T00:35:28.270Z,2.19
2023-02-16T00:42:26.778Z,2.16
2023-02-16T00:49:16.988Z,2.11
2023-02-16T00:55:59.198Z,2.09
2023-02-16T01:02:44.478Z,2.06
2023-02-16T01:09:49.733Z,2.01
2023-02-16T01:16:42.522Z,1.99
2023-02-16T01:23:24.805Z,1.93
2023-02-16T01:30:13.676Z,1.90
2023-02-16T01:36:58.737Z,1.88
2023-02-16T01:44:03.427Z,1.87
2023-02-16T01:50:58.902Z,1.87
2023-02-16T01:57:49.825Z,1.83
2023-02-16T02:05:05.432Z,1.83
2023-02-16T02:12:03.704Z,1.82
2023-02-16T02:18:46.290Z,1.79
2023-02-16T02:26:09.366Z,1.77
2023-02-16T02:33:31.306Z,1.76
2023-02-16T02:40:41.759Z,1.75
2023-02-16T02:47:39.214Z,1.73
2023-02-16T02:54:52.751Z,1.71
2023-02-16T03:01:37.923Z,1.67
2023-02-16T03:08:25.148Z,1.61
2023-02-16T03:15:09.099Z,1.59
2023-02-16T03:22:10.735Z,1.53
2023-02-16T03:29:12.297Z,1.50
2023-02-16T03:35:55.484Z,1.44
2023-02-16T03:42:37.860Z,1.40
2023-02-16T03:49:21.643Z,1.36
2023-02-16T03:56:04.068Z,1.32
2023-02-16T04:02:46.341Z,1.30
2023-02-16T04:09:28.539Z,1.27
2023-02-16T04:16:10.783Z,1.25
2023-02-16T04:22:53.860Z,1.17
2023-02-16T04:29:36.246Z,1.12
2023-02-16T04:36:18.618Z,1.04
2023-02-16T04:43:00.948Z,1.00
2023-02-16T04:49:43.327Z,0.99
2023-02-16T04:56:25.556Z,1.00
2023-02-16T05:03:07.850Z,1.03
2023-02-16T05:09:50.915Z,1.02
2023-02-16T05:16:33.314Z,1.04
2023-02-16T05:23:15.720Z,1.06
2023-02-16T05:29:59.844Z,1.09
2023-02-16T05:36:42.240Z,1.10
2023-02-16T05:43:24.514Z,1.07
2023-02-16T05:50:07.604Z,1.03
2023-02-16T05:56:52.260Z,0.98
2023-02-16T06:03:36.040Z,0.93
2023-02-16T06:10:18.784Z,0.84
2023-02-16T06:17:01.518Z,0.74
2023-02-16T06:23:44.019Z,0.66
2023-02-16T06:30:26.765Z,0.60
2023-02-16T06:37:09.001Z,0.57
2023-02-16T06:43:51.278Z,0.57
2023-02-16T06:50:33.496Z,0.62
2023-02-16T06:57:15.924Z,0.61
2023-02-16T07:03:58.454Z,0.65
2023-02-16T07:10:50.197Z,0.62
2023-02-16T07:17:32.976Z,0.60
2023-02-16T07:24:15.740Z,0.58
2023-02-16T07:30:58.168Z,0.57
2023-02-16T07:37:40.465Z,0.56
2023-02-16T07:44:22.872Z,0.58
2023-02-16T07:51:05.799Z,0.59
2023-02-16T07:57:49.521Z,0.57
2023-02-16T08:04:31.843Z,0.53
2023-02-16T08:11:23.835Z,0.50
2023-02-16T08:18:06.206Z,0.53
2023-02-16T08:24:48.601Z,0.56
2023-02-16T08:31:35.190Z,0.57
2023-02-16T08:38:20.450Z,0.58
2023-02-16T08:45:03.497Z,0.61
2023-02-16T08:51:49.150Z,0.65
2023-02-16T08:58:31.869Z,0.69
2023-02-16T09:05:14.078Z,0.75
2023-02-16T09:11:58.122Z,0.81
2023-02-16T09:18:40.975Z,0.91
2023-02-16T09:25:24.864Z,1.04
2023-02-16T09:32:10.873Z,1.21
2023-02-16T09:38:54.152Z,1.41
2023-02-16T09:45:48.689Z,1.64
2023-02-16T09:52:41.058Z,1.90
2023-02-16T10:00:04.611Z,2.15
2023-02-16T10:07:04.780Z,2.38
2023-02-16T10:13:54.907Z,2.56
2023-02-16T10:20:49.647Z,2.75
2023-02-16T10:27:42.746Z,2.92
2023-02-16T10:34:46.865Z,3.08
2023-02-16T10:41:39.205Z,3.32
2023-02-16T10:48:25.825Z,3.55
2023-02-16T10:55:09.094Z,3.69
2023-02-16T11:01:57.570Z,3.82
2023-02-16T11:08:55.123Z,4.03
2023-02-16T11:15:39.527Z,4.21
2023-02-16T11:22:37.186Z,4.36
2023-02-16T11:29:20.685Z,4.50
2023-02-16T11:36:05.430Z,4.65
2023-02-16T11:42:57.534Z,4.85
2023-02-16T11:49:42.068Z,5.05
2023-02-16T11:56:29.534Z,5.20
2023-02-16T12:03:33.508Z,5.35
2023-02-16T12:10:21.969Z,5.45
2023-02-16T12:17:41.622Z,5.53
2023-02-16T12:25:08.023Z,5.79
2023-02-16T12:32:16.142Z,6.14
2023-02-16T12:39:45.903Z,6.36
2023-02-16T12:46:45.843Z,6.50
2023-02-16T12:53:41.518Z,6.79
2023-02-16T13:00:43.699Z,7.02
2023-02-16T13:07:37.471Z,7.05
2023-02-16T13:14:34.012Z,7.10
2023-02-16T13:22:12.999Z,7.18
2023-02-16T13:29:42.295Z,7.11
2023-02-16T13:36:34.139Z,7.12
2023-02-16T13:43:25.018Z,7.08
2023-02-16T13:50:32.217Z,6.93
2023-02-16T13:57:35.644Z,6.81
2023-02-16T14:04:24.829Z,6.70
2023-02-16T14:11:10.781Z,6.73
2023-02-16T14:17:53.166Z,6.77
2023-02-16T14:24:38.569Z,6.75
2023-02-16T14:31:23.014Z,6.72
2023-02-16T14:38:20.850Z,6.64
2023-02-16T14:45:50.928Z,6.55
2023-02-16T14:52:42.148Z,6.44
2023-02-16T14:59:37.210Z,6.35
2023-02-16T15:06:36.482Z,6.29
2023-02-16T15:13:31.069Z,6.23
2023-02-16T15:20:38.737Z,6.16
2023-02-16T15:31:05.703Z,6.02
2023-02-16T15:37:48.069Z,5.89
2023-02-16T15:44:35.403Z,5.75
2023-02-16T15:51:31.628Z,5.63
2023-02-16T15:58:15.674Z,5.50
2023-02-16T16:05:01.441Z,5.40
2023-02-16T16:11:44.043Z,5.31
2023-02-16T16:18:43.591Z,5.23
2023-02-16T16:25:37.017Z,5.14
2023-02-16T16:32:28.918Z,5.06
2023-02-16T16:39:16.811Z,5.01
2023-02-16T16:46:29.846Z,4.96
2023-02-16T16:53:31.022Z,4.90
2023-02-16T17:00:14.611Z,4.86
2023-02-16T17:06:56.822Z,4.81
2023-02-16T17:13:39.196Z,4.78
2023-02-16T17:20:21.674Z,4.75
2023-02-16T17:27:03.977Z,4.73
2023-02-16T17:33:46.237Z,4.70
2023-02-16T17:40:28.508Z,4.69
2023-02-16T17:47:15.759Z,4.66
2023-02-16T17:53:58.121Z,4.60
2023-02-16T18:00:42.043Z,4.57
2023-02-16T18:07:27.245Z,4.54
2023-02-16T18:14:10.012Z,4.51
2023-02-16T18:20:52.420Z,4.54
2023-02-16T18:27:34.876Z,4.55
2023-02-16T18:34:17.493Z,4.57
2023-02-16T18:40:59.940Z,4.60
2023-02-16T18:47:44.398Z,4.59
2023-02-16T18:54:26.866Z,4.61
2023-02-16T19:01:24.960Z,4.62
2023-02-16T19:08:07.292Z,4.61
2023-02-16T19:14:49.648Z,4.62
2023-02-16T19:21:31.904Z,4.64
2023-02-16T19:28:14.181Z,4.63
2023-02-16T19:34:56.475Z,4.65
2023-02-16T19:41:41.824Z,4.66
2023-02-16T19:48:24.011Z,4.68
2023-02-16T19:55:06.520Z,4.71
2023-02-16T20:01:49.212Z,4.74
2023-02-16T20:08:31.648Z,4.77
2023-02-16T20:15:15.722Z,4.78
2023-02-16T20:21:58.274Z,4.78
2023-02-16T20:28:41.443Z,4.79
2023-02-16T20:35:23.888Z,4.82
2023-02-16T20:42:06.140Z,4.81
2023-02-16T20:48:50.096Z,4.81
2023-02-16T20:55:32.687Z,4.80
2023-02-16T21:02:15.180Z,4.82
2023-02-16T21:08:57.913Z,4.82
2023-02-16T21:15:40.287Z,4.82
2023-02-16T21:22:24.508Z,4.77
2023-02-16T21:29:06.800Z,4.73
2023-02-16T21:35:49.041Z,4.69
2023-02-16T21:42:34.689Z,4.66
2023-02-16T21:49:20.031Z,4.65
2023-02-16T21:56:16.925Z,4.64
2023-02-16T22:02:59.387Z,4.64
2023-02-16T22:09:42.590Z,4.64
2023-02-16T22:16:26.677Z,4.64
2023-02-16T22:23:08.996Z,4.64
2023-02-16T22:29:52.361Z,4.62
2023-02-16T22:36:36.361Z,4.61
2023-02-16T22:43:18.568Z,4.57
2023-02-16T22:50:01.094Z,4.55
2023-02-16T22:56:43.927Z,4.55
2023-02-16T23:03:27.416Z,4.57
2023-02-16T23:10:10.315Z,4.59
2023-02-16T23:16:56.855Z,4.60
2023-02-16T23:23:39.082Z,4.61
2023-02-16T23:30:21.719Z,4.61
2023-02-16T23:37:04.277Z,4.63
2023-02-16T23:43:46.576Z,4.61
2023-02-16T23:50:29.010Z,4.60
2023-02-16T23:57:11.762Z,4.59
